Port Wentworth, Georgia
Current Conditions -  °F | °C
As of 2:53 PM on Monday 24 Nov 2014 (Local Time) from KSAV Reporting Station
Overcast Overcast  
Wind Chill: 70°   Ceiling: 3300
Heat Index: 70°   Visibility: 10mi
Dew Point: 65°   Wind: 8mph
Humidity: 84%   Direction: 260°W
Pressure: 29.88"   Gusts: NA
Location:  32.1492°N, 81.1685°W
Report Text: KSAV 241953Z 26007KT 10SM FEW021 OVC033 21/18 A2988 RMK AO2 RAB31E42DZB42E50 SLP118 P0000 T02110183 $
Loading
Personal Weather Stations






























Interactive Weather Map New forecast layout! Learn more

10-Day Weather Forecast

Advertisements
Track Severe Weather on mobile